createdAt,value
2018-05-23T00:00:41.398Z,0.00
2018-05-23T00:01:41.384Z,0.00
2018-05-23T00:02:41.403Z,0.00
2018-05-23T00:03:41.349Z,0.00
2018-05-23T00:04:41.350Z,0.00
2018-05-23T00:05:41.325Z,0.00
2018-05-23T00:06:41.301Z,0.00
2018-05-23T00:07:41.287Z,0.00
2018-05-23T00:08:41.298Z,0.00
2018-05-23T00:09:41.278Z,0.00
2018-05-23T00:10:41.311Z,0.00
2018-05-23T00:11:41.221Z,0.00
2018-05-23T00:12:41.238Z,0.00
2018-05-23T00:13:41.186Z,0.00
2018-05-23T00:14:41.170Z,0.00
2018-05-23T00:15:41.163Z,0.00
2018-05-23T00:16:41.145Z,0.00
2018-05-23T00:17:41.118Z,0.00
2018-05-23T00:18:41.184Z,0.00
2018-05-23T00:19:41.118Z,0.00
2018-05-23T00:20:41.103Z,0.00
2018-05-23T00:21:41.098Z,0.00
2018-05-23T00:22:41.061Z,0.00
2018-05-23T00:23:41.027Z,0.00
2018-05-23T00:24:41.005Z,0.00
2018-05-23T00:25:41.038Z,0.00
2018-05-23T00:26:40.989Z,0.00
2018-05-23T00:27:40.970Z,0.00
2018-05-23T00:28:40.942Z,0.00
2018-05-23T00:29:40.940Z,0.00
2018-05-23T00:30:40.910Z,0.00
2018-05-23T00:31:40.916Z,0.00
2018-05-23T00:32:40.885Z,0.00
2018-05-23T00:33:40.878Z,0.00
2018-05-23T00:34:40.862Z,0.00
2018-05-23T00:35:40.821Z,0.00
2018-05-23T00:36:40.819Z,0.00
2018-05-23T00:37:40.805Z,0.00
2018-05-23T00:38:40.785Z,0.00
2018-05-23T00:39:40.759Z,0.00
2018-05-23T00:40:40.773Z,0.00
2018-05-23T00:41:40.734Z,0.00
2018-05-23T00:42:40.732Z,0.00
2018-05-23T00:43:40.707Z,0.00
2018-05-23T00:44:40.690Z,0.00
2018-05-23T00:45:40.672Z,0.00
2018-05-23T00:46:40.704Z,0.00
2018-05-23T00:47:40.629Z,0.00
2018-05-23T00:48:40.650Z,0.00
2018-05-23T00:49:40.627Z,0.00
2018-05-23T00:50:40.589Z,0.00
2018-05-23T00:51:40.575Z,0.00
2018-05-23T00:52:40.548Z,0.00
2018-05-23T00:53:40.548Z,0.00
2018-05-23T00:54:40.518Z,0.00
2018-05-23T00:55:40.500Z,0.00
2018-05-23T00:56:40.500Z,0.00
2018-05-23T00:57:40.461Z,0.00
2018-05-23T00:58:40.462Z,0.00
2018-05-23T00:59:40.451Z,0.00
2018-05-23T01:00:40.423Z,0.00
2018-05-23T01:01:40.392Z,0.00
2018-05-23T01:02:40.422Z,0.00
2018-05-23T01:03:40.421Z,0.00
2018-05-23T01:04:40.400Z,0.00
2018-05-23T01:05:40.351Z,0.00
2018-05-23T01:06:40.344Z,0.00
2018-05-23T01:07:40.300Z,0.00
2018-05-23T01:08:40.303Z,0.00
2018-05-23T01:09:40.264Z,0.00
2018-05-23T01:10:40.289Z,0.00
2018-05-23T01:11:40.293Z,0.00
2018-05-23T01:12:40.224Z,0.00
2018-05-23T01:13:40.223Z,0.00
2018-05-23T01:14:40.196Z,0.00
2018-05-23T01:15:40.187Z,0.00
2018-05-23T01:16:40.158Z,0.00
2018-05-23T01:17:40.148Z,0.00
2018-05-23T01:18:40.136Z,0.00
2018-05-23T01:19:40.100Z,0.00
2018-05-23T01:20:40.095Z,0.00
2018-05-23T01:21:40.073Z,0.00
2018-05-23T01:22:40.052Z,0.00
2018-05-23T01:23:40.035Z,0.00
2018-05-23T01:24:40.010Z,0.00
2018-05-23T01:25:40.017Z,0.00
2018-05-23T01:26:39.981Z,0.00
2018-05-23T01:27:39.986Z,0.00
2018-05-23T01:28:39.977Z,0.00
2018-05-23T01:29:39.961Z,0.00
2018-05-23T01:30:39.945Z,0.00
2018-05-23T01:31:39.920Z,0.00
2018-05-23T01:32:39.905Z,0.00
2018-05-23T01:33:39.890Z,0.00
2018-05-23T01:34:39.863Z,0.00
2018-05-23T01:35:39.846Z,0.00
2018-05-23T01:36:39.834Z,0.00
2018-05-23T01:37:39.797Z,0.00
2018-05-23T01:38:39.832Z,0.00
2018-05-23T01:39:39.788Z,0.00
2018-05-23T01:40:39.772Z,0.00
2018-05-23T01:41:39.770Z,0.00
2018-05-23T01:42:39.732Z,0.00
2018-05-23T01:43:39.752Z,0.00
2018-05-23T01:44:39.723Z,0.00
2018-05-23T01:45:39.687Z,0.00
2018-05-23T01:46:39.665Z,0.00
2018-05-23T01:47:39.631Z,0.00
2018-05-23T01:48:39.632Z,0.00
2018-05-23T01:49:39.639Z,0.00
2018-05-23T01:50:39.611Z,0.00
2018-05-23T01:51:39.584Z,0.00
2018-05-23T01:52:39.614Z,0.00
2018-05-23T01:53:39.565Z,0.00
2018-05-23T01:54:39.517Z,0.00
2018-05-23T01:55:39.515Z,0.00
2018-05-23T01:56:39.490Z,0.00
2018-05-23T01:57:39.487Z,0.00
2018-05-23T01:58:39.479Z,0.00
2018-05-23T01:59:39.434Z,0.00
2018-05-23T02:00:39.460Z,0.00
2018-05-23T02:01:39.408Z,0.00
2018-05-23T02:02:39.381Z,0.00
2018-05-23T02:03:39.389Z,0.00
2018-05-23T02:04:39.372Z,0.00
2018-05-23T02:05:39.352Z,0.00
2018-05-23T02:06:39.333Z,0.00
2018-05-23T02:07:39.319Z,0.00
2018-05-23T02:08:39.282Z,0.00
2018-05-23T02:09:39.321Z,0.00
2018-05-23T02:10:39.293Z,0.00
2018-05-23T02:11:39.260Z,0.00
2018-05-23T02:12:39.218Z,0.00
2018-05-23T02:13:39.226Z,0.00
2018-05-23T02:14:39.199Z,0.00
2018-05-23T02:15:39.167Z,0.00
2018-05-23T02:16:39.172Z,0.00
2018-05-23T02:17:39.162Z,0.00
2018-05-23T02:18:39.152Z,0.00
2018-05-23T02:19:39.118Z,0.00
2018-05-23T02:20:39.080Z,0.00
2018-05-23T02:21:39.086Z,0.00
2018-05-23T02:22:39.055Z,0.00
2018-05-23T02:23:39.060Z,0.00
2018-05-23T02:24:39.028Z,0.00
2018-05-23T02:25:39.014Z,0.00
2018-05-23T02:26:38.985Z,0.00
2018-05-23T02:27:38.977Z,0.00
2018-05-23T02:28:38.957Z,0.00
2018-05-23T02:29:38.942Z,0.00
2018-05-23T02:30:38.934Z,0.00
2018-05-23T02:31:38.904Z,0.00
2018-05-23T02:32:38.882Z,0.00
2018-05-23T02:33:38.878Z,0.00
2018-05-23T02:34:38.874Z,0.00
2018-05-23T02:35:38.845Z,0.00
2018-05-23T02:36:38.823Z,0.00
2018-05-23T02:37:38.817Z,0.00
2018-05-23T02:38:38.809Z,0.00
2018-05-23T02:39:38.774Z,0.00
2018-05-23T02:40:38.776Z,0.00
2018-05-23T02:41:38.742Z,0.00
2018-05-23T02:42:38.721Z,0.00
2018-05-23T02:43:38.709Z,0.00
2018-05-23T02:44:38.720Z,0.00
2018-05-23T02:45:38.684Z,0.00
2018-05-23T02:46:38.652Z,0.00
2018-05-23T02:47:38.641Z,0.00
2018-05-23T02:48:38.651Z,0.00
2018-05-23T02:49:38.647Z,0.00
2018-05-23T02:50:38.586Z,0.00
2018-05-23T02:51:38.569Z,0.00
2018-05-23T02:52:38.568Z,0.00
2018-05-23T02:53:38.557Z,0.00
2018-05-23T02:54:38.528Z,0.00
2018-05-23T02:55:38.541Z,0.00
2018-05-23T02:56:38.538Z,0.00
2018-05-23T02:57:38.495Z,0.00
2018-05-23T02:58:38.463Z,0.00
2018-05-23T02:59:38.459Z,4.00
2018-05-23T03:00:38.458Z,4.00
2018-05-23T03:01:38.429Z,4.00
2018-05-23T03:02:38.424Z,0.00
2018-05-23T03:03:38.367Z,4.00
2018-05-23T03:04:38.414Z,4.00
2018-05-23T03:05:38.338Z,4.00
2018-05-23T03:06:38.324Z,4.00
2018-05-23T03:07:38.335Z,4.00
2018-05-23T03:08:38.293Z,4.00
2018-05-23T03:09:38.280Z,8.00
2018-05-23T03:10:38.274Z,4.00
2018-05-23T03:11:38.231Z,8.00
2018-05-23T03:12:38.227Z,8.00
2018-05-23T03:13:38.208Z,12.00
2018-05-23T03:14:38.203Z,12.00
2018-05-23T03:15:38.165Z,12.00
2018-05-23T03:16:38.178Z,16.00
2018-05-23T03:17:38.167Z,16.00
2018-05-23T03:18:38.117Z,20.00
2018-05-23T03:19:38.139Z,20.00
2018-05-23T03:20:38.105Z,20.00
2018-05-23T03:21:38.081Z,24.00
2018-05-23T03:22:38.088Z,28.00
2018-05-23T03:23:38.065Z,28.00
2018-05-23T03:24:38.022Z,28.00
2018-05-23T03:25:38.019Z,32.00
2018-05-23T03:26:37.998Z,32.00
2018-05-23T03:27:37.981Z,40.00
2018-05-23T03:28:38.017Z,40.00
2018-05-23T03:29:37.940Z,44.00
2018-05-23T03:30:37.956Z,44.00
2018-05-23T03:31:37.921Z,48.00
2018-05-23T03:32:37.922Z,48.00
2018-05-23T03:33:37.904Z,52.00
2018-05-23T03:34:37.872Z,56.00
2018-05-23T03:35:37.882Z,60.00
2018-05-23T03:36:37.852Z,60.00
2018-05-23T03:37:37.820Z,64.00
2018-05-23T03:38:37.824Z,68.00
2018-05-23T03:39:37.774Z,72.00
2018-05-23T03:40:37.775Z,72.00
2018-05-23T03:41:37.752Z,76.00
2018-05-23T03:42:37.743Z,80.00
2018-05-23T03:43:37.720Z,80.00
2018-05-23T03:44:37.697Z,84.00
2018-05-23T03:45:37.721Z,88.00
2018-05-23T03:46:37.680Z,92.00
2018-05-23T03:47:37.655Z,96.00
2018-05-23T03:48:37.628Z,100.00
2018-05-23T03:49:37.631Z,104.00
2018-05-23T03:50:37.595Z,108.00
2018-05-23T03:51:37.579Z,112.00
2018-05-23T03:52:37.562Z,120.00
2018-05-23T03:53:37.564Z,124.00
2018-05-23T03:54:37.605Z,132.00
2018-05-23T03:55:37.530Z,140.00
2018-05-23T03:56:37.556Z,144.00
2018-05-23T03:57:37.533Z,152.00
2018-05-23T03:58:37.485Z,152.00
2018-05-23T03:59:37.458Z,160.00
2018-05-23T04:00:37.422Z,164.00
2018-05-23T04:01:37.405Z,168.00
2018-05-23T04:02:37.402Z,176.00
2018-05-23T04:03:37.394Z,180.00
2018-05-23T04:04:37.374Z,184.00
2018-05-23T04:05:37.365Z,196.00
2018-05-23T04:06:37.330Z,200.00
2018-05-23T04:07:37.309Z,208.00
2018-05-23T04:08:37.304Z,212.00
2018-05-23T04:09:37.311Z,216.00
2018-05-23T04:10:37.292Z,224.00
2018-05-23T04:11:37.299Z,232.00
2018-05-23T04:12:37.254Z,236.00
2018-05-23T04:13:37.237Z,240.00
2018-05-23T04:14:37.194Z,248.00
2018-05-23T04:15:37.185Z,256.00
2018-05-23T04:16:37.166Z,260.00
2018-05-23T04:17:37.139Z,268.00
2018-05-23T04:18:37.124Z,276.00
2018-05-23T04:19:37.108Z,288.00
2018-05-23T04:20:37.096Z,292.00
2018-05-23T04:21:37.103Z,296.00
2018-05-23T04:22:37.074Z,304.00
2018-05-23T04:23:37.059Z,312.00
2018-05-23T04:24:37.030Z,316.00
2018-05-23T04:25:37.010Z,320.00
2018-05-23T04:26:36.990Z,332.00
2018-05-23T04:27:36.976Z,340.00
2018-05-23T04:28:36.962Z,348.00
2018-05-23T04:29:36.943Z,360.00
2018-05-23T04:30:36.941Z,368.00
2018-05-23T04:31:36.902Z,376.00
2018-05-23T04:32:36.896Z,376.00
2018-05-23T04:33:36.876Z,384.00
2018-05-23T04:34:36.891Z,388.00
2018-05-23T04:35:36.838Z,392.00
2018-05-23T04:36:36.838Z,400.00
2018-05-23T04:37:36.812Z,400.00
2018-05-23T04:38:36.822Z,412.00
2018-05-23T04:39:36.799Z,416.00
2018-05-23T04:40:36.767Z,424.00
2018-05-23T04:41:36.775Z,436.00
2018-05-23T04:42:36.739Z,448.00
2018-05-23T04:43:36.724Z,464.00
2018-05-23T04:44:36.694Z,480.00
2018-05-23T04:45:36.679Z,500.00
2018-05-23T04:46:36.683Z,520.00
2018-05-23T04:47:36.665Z,540.00
2018-05-23T04:48:36.655Z,556.00
2018-05-23T04:49:36.607Z,576.00
2018-05-23T04:50:36.587Z,592.00
2018-05-23T04:51:36.578Z,604.00
2018-05-23T04:52:36.620Z,616.00
2018-05-23T04:53:36.532Z,628.00
2018-05-23T04:54:36.516Z,640.00
2018-05-23T04:55:36.610Z,644.00
2018-05-23T04:56:36.489Z,656.00
2018-05-23T04:57:36.519Z,660.00
2018-05-23T04:58:36.466Z,676.00
2018-05-23T04:59:36.446Z,696.00
2018-05-23T05:00:36.440Z,716.00
2018-05-23T05:01:36.444Z,744.00
2018-05-23T05:02:36.386Z,768.00
2018-05-23T05:03:36.398Z,800.00
2018-05-23T05:04:36.384Z,824.00
2018-05-23T05:05:36.364Z,852.00
2018-05-23T05:06:36.349Z,880.00
2018-05-23T05:07:36.311Z,892.00
2018-05-23T05:08:36.327Z,912.00
2018-05-23T05:09:36.277Z,928.00
2018-05-23T05:10:36.266Z,952.00
2018-05-23T05:11:36.235Z,984.00
2018-05-23T05:12:36.216Z,1016.00
2018-05-23T05:13:36.207Z,1052.00
2018-05-23T05:14:36.176Z,1088.00
2018-05-23T05:15:36.163Z,1112.00
2018-05-23T05:16:36.144Z,1128.00
2018-05-23T05:17:36.133Z,1132.00
2018-05-23T05:18:36.122Z,1120.00
2018-05-23T05:19:36.100Z,1104.00
2018-05-23T05:20:36.110Z,1064.00
2018-05-23T05:21:36.069Z,1020.00
2018-05-23T05:22:36.046Z,964.00
2018-05-23T05:23:36.030Z,904.00
2018-05-23T05:24:36.022Z,852.00
2018-05-23T05:25:36.002Z,812.00
2018-05-23T05:26:35.979Z,772.00
2018-05-23T05:27:35.981Z,748.00
2018-05-23T05:28:35.951Z,728.00
2018-05-23T05:29:35.933Z,720.00
2018-05-23T05:30:35.925Z,724.00
2018-05-23T05:31:35.903Z,752.00
2018-05-23T05:32:35.916Z,792.00
2018-05-23T05:33:35.863Z,844.00
2018-05-23T05:34:35.877Z,904.00
2018-05-23T05:35:35.832Z,980.00
2018-05-23T05:36:35.814Z,1068.00
2018-05-23T05:37:35.803Z,1164.00
2018-05-23T05:38:35.782Z,1252.00
2018-05-23T05:39:35.769Z,1340.00
2018-05-23T05:40:35.841Z,1428.00
2018-05-23T05:41:35.729Z,1516.00
2018-05-23T05:42:35.711Z,1588.00
2018-05-23T05:43:35.711Z,1644.00
2018-05-23T05:44:35.695Z,1676.00
2018-05-23T05:45:35.663Z,1680.00
2018-05-23T05:46:35.661Z,1676.00
2018-05-23T05:47:35.641Z,1648.00
2018-05-23T05:48:35.617Z,1600.00
2018-05-23T05:49:35.601Z,1572.00
2018-05-23T05:50:35.583Z,1548.00
2018-05-23T05:51:35.569Z,1536.00
2018-05-23T05:52:35.614Z,1556.00
2018-05-23T05:53:35.585Z,1596.00
2018-05-23T05:54:35.514Z,1640.00
2018-05-23T05:55:35.502Z,1696.00
2018-05-23T05:56:35.484Z,1756.00
2018-05-23T05:57:35.458Z,1796.00
2018-05-23T05:58:35.452Z,1800.00
2018-05-23T05:59:35.444Z,1740.00
2018-05-23T06:00:35.413Z,1680.00
2018-05-23T06:01:35.393Z,1660.00
2018-05-23T06:02:35.385Z,1668.00
2018-05-23T06:03:35.362Z,1668.00
2018-05-23T06:04:35.349Z,1640.00
2018-05-23T06:05:35.327Z,1612.00
2018-05-23T06:06:35.331Z,1588.00
2018-05-23T06:07:35.297Z,1556.00
2018-05-23T06:08:35.279Z,1504.00
2018-05-23T06:09:35.285Z,1456.00
2018-05-23T06:10:35.255Z,1428.00
2018-05-23T06:11:35.236Z,1416.00
2018-05-23T06:12:35.216Z,1380.00
2018-05-23T06:13:35.202Z,1336.00
2018-05-23T06:14:35.182Z,1312.00
2018-05-23T06:15:35.174Z,1320.00
2018-05-23T06:16:35.154Z,1332.00
2018-05-23T06:17:35.140Z,1352.00
2018-05-23T06:18:35.144Z,1400.00
2018-05-23T06:19:35.105Z,1472.00
2018-05-23T06:20:35.081Z,1556.00
2018-05-23T06:21:35.072Z,1652.00
2018-05-23T06:22:35.051Z,1772.00
2018-05-23T06:23:35.039Z,1916.00
2018-05-23T06:24:35.023Z,2076.00
2018-05-23T06:25:35.015Z,2260.00
2018-05-23T06:26:34.992Z,2424.00
2018-05-23T06:27:34.971Z,2564.00
2018-05-23T06:28:34.958Z,2660.00
2018-05-23T06:29:34.939Z,2708.00
2018-05-23T06:30:34.928Z,2708.00
2018-05-23T06:31:34.905Z,2756.00
2018-05-23T06:32:34.891Z,2864.00
2018-05-23T06:33:34.880Z,2964.00
2018-05-23T06:34:34.858Z,3048.00
2018-05-23T06:35:34.837Z,3100.00
2018-05-23T06:36:34.826Z,3120.00
2018-05-23T06:37:34.803Z,3120.00
2018-05-23T06:38:34.788Z,3048.00
2018-05-23T06:39:34.780Z,2932.00
2018-05-23T06:40:34.760Z,2832.00
2018-05-23T06:41:34.780Z,2740.00
2018-05-23T06:42:34.732Z,2652.00
2018-05-23T06:43:34.753Z,2584.00
2018-05-23T06:44:34.700Z,2544.00
2018-05-23T06:45:34.678Z,2548.00
2018-05-23T06:46:34.656Z,2612.00
2018-05-23T06:47:34.656Z,2660.00
2018-05-23T06:48:34.655Z,2648.00
2018-05-23T06:49:34.622Z,2608.00
2018-05-23T06:50:34.642Z,2540.00
2018-05-23T06:51:34.611Z,2460.00
2018-05-23T06:52:34.575Z,2400.00
2018-05-23T06:53:34.591Z,2372.00
2018-05-23T06:54:34.549Z,2400.00
2018-05-23T06:55:34.554Z,2492.00
2018-05-23T06:56:34.505Z,2644.00
2018-05-23T06:57:34.527Z,2836.00
2018-05-23T06:58:34.476Z,3080.00
2018-05-23T06:59:34.459Z,3356.00
2018-05-23T07:00:34.435Z,3676.00
2018-05-23T07:01:34.445Z,4068.00
2018-05-23T07:02:34.418Z,4460.00
2018-05-23T07:03:34.412Z,4712.00
2018-05-23T07:04:34.384Z,4820.00
2018-05-23T07:05:34.360Z,4808.00
2018-05-23T07:06:34.338Z,4700.00
2018-05-23T07:07:34.354Z,4468.00
2018-05-23T07:08:34.323Z,4172.00
2018-05-23T07:09:34.313Z,3880.00
2018-05-23T07:10:34.306Z,3644.00
2018-05-23T07:11:34.259Z,3420.00
2018-05-23T07:12:34.246Z,3240.00
2018-05-23T07:13:34.282Z,3128.00
2018-05-23T07:14:34.248Z,3108.00
2018-05-23T07:15:34.205Z,3152.00
2018-05-23T07:16:34.224Z,3192.00
2018-05-23T07:17:34.168Z,3236.00
2018-05-23T07:18:34.182Z,3340.00
2018-05-23T07:19:34.141Z,3544.00
2018-05-23T07:20:34.120Z,3800.00
2018-05-23T07:21:34.112Z,4076.00
2018-05-23T07:22:34.100Z,4348.00
2018-05-23T07:23:34.118Z,4608.00
2018-05-23T07:24:34.061Z,4840.00
2018-05-23T07:25:34.060Z,5016.00
2018-05-23T07:26:34.044Z,5172.00
2018-05-23T07:27:34.029Z,5324.00
2018-05-23T07:28:34.006Z,5456.00
2018-05-23T07:29:34.019Z,5584.00
2018-05-23T07:30:33.968Z,5664.00
2018-05-23T07:31:33.955Z,5700.00
2018-05-23T07:32:33.953Z,5708.00
2018-05-23T07:33:33.942Z,5644.00
2018-05-23T07:34:33.941Z,5520.00
2018-05-23T07:35:33.891Z,5408.00
2018-05-23T07:36:33.891Z,5312.00
2018-05-23T07:37:33.872Z,5296.00
2018-05-23T07:38:33.871Z,5376.00
2018-05-23T07:39:33.836Z,5552.00
2018-05-23T07:40:33.833Z,5760.00
2018-05-23T07:41:33.845Z,5980.00
2018-05-23T07:42:33.796Z,6176.00
2018-05-23T07:43:33.779Z,6344.00
2018-05-23T07:44:33.768Z,6492.00
2018-05-23T07:45:33.759Z,6680.00
2018-05-23T07:46:33.756Z,6952.00
2018-05-23T07:47:33.755Z,7260.00
2018-05-23T07:48:33.725Z,7588.00
2018-05-23T07:49:33.713Z,7844.00
2018-05-23T07:50:33.706Z,7992.00
2018-05-23T07:51:33.675Z,8092.00
2018-05-23T07:52:33.759Z,8176.00
2018-05-23T07:53:33.656Z,8216.00
2018-05-23T07:54:33.680Z,8240.00
2018-05-23T07:55:33.629Z,8384.00
2018-05-23T07:56:33.597Z,8464.00
2018-05-23T07:57:33.590Z,8540.00
2018-05-23T07:58:33.577Z,8556.00
2018-05-23T07:59:33.562Z,8496.00
2018-05-23T08:00:33.602Z,8472.00
2018-05-23T08:01:33.537Z,8552.00
2018-05-23T08:02:33.537Z,8576.00
2018-05-23T08:03:33.503Z,8564.00
2018-05-23T08:04:33.486Z,8540.00
2018-05-23T08:05:33.467Z,8416.00
2018-05-23T08:06:33.466Z,8236.00
2018-05-23T08:07:33.453Z,8092.00
2018-05-23T08:08:33.431Z,7964.00
2018-05-23T08:09:33.423Z,7904.00
2018-05-23T08:10:33.411Z,7872.00
2018-05-23T08:11:33.397Z,7884.00
2018-05-23T08:12:33.392Z,8024.00
2018-05-23T08:13:33.393Z,8136.00
2018-05-23T08:14:33.360Z,8184.00
2018-05-23T08:15:33.356Z,8244.00
2018-05-23T08:16:33.356Z,8288.00
2018-05-23T08:17:33.326Z,8232.00
2018-05-23T08:18:33.309Z,8100.00
2018-05-23T08:19:33.292Z,8004.00
2018-05-23T08:20:33.306Z,7880.00
2018-05-23T08:21:33.268Z,7744.00
2018-05-23T08:22:33.259Z,7632.00
2018-05-23T08:23:33.263Z,7536.00
2018-05-23T08:24:33.376Z,7464.00
2018-05-23T08:25:33.221Z,7368.00
2018-05-23T08:26:33.218Z,7276.00
2018-05-23T08:27:33.221Z,7228.00
2018-05-23T08:28:33.220Z,7216.00
2018-05-23T08:29:33.176Z,7220.00
2018-05-23T08:30:33.171Z,7212.00
2018-05-23T08:31:33.148Z,7216.00
2018-05-23T08:32:33.141Z,7228.00
2018-05-23T08:33:33.122Z,7300.00
2018-05-23T08:34:33.148Z,7412.00
2018-05-23T08:35:33.123Z,7552.00
2018-05-23T08:36:33.105Z,7704.00
2018-05-23T08:37:33.115Z,7888.00
2018-05-23T08:38:33.081Z,8032.00
2018-05-23T08:39:33.052Z,8124.00
2018-05-23T08:40:33.053Z,8164.00
2018-05-23T08:41:33.047Z,8180.00
2018-05-23T08:42:33.041Z,8212.00
2018-05-23T08:43:33.002Z,8252.00
2018-05-23T08:44:32.994Z,8284.00
2018-05-23T08:45:32.984Z,8348.00
2018-05-23T08:46:32.974Z,8424.00
2018-05-23T08:47:32.977Z,8528.00
2018-05-23T08:48:32.943Z,8632.00
2018-05-23T08:49:32.934Z,8740.00
2018-05-23T08:50:32.948Z,8840.00
2018-05-23T08:51:32.931Z,8912.00
2018-05-23T08:52:32.925Z,8956.00
2018-05-23T08:53:32.933Z,8984.00
2018-05-23T08:54:32.888Z,8996.00
2018-05-23T08:55:32.897Z,8980.00
2018-05-23T08:56:32.872Z,8924.00
2018-05-23T08:57:32.845Z,8828.00
2018-05-23T08:58:32.861Z,8708.00
2018-05-23T08:59:32.864Z,8556.00
2018-05-23T09:00:32.832Z,8388.00
2018-05-23T09:01:32.807Z,8232.00
2018-05-23T09:02:32.793Z,8020.00
2018-05-23T09:03:32.798Z,7792.00
2018-05-23T09:04:32.807Z,7524.00
2018-05-23T09:05:32.753Z,7248.00
2018-05-23T09:06:32.762Z,7004.00
2018-05-23T09:07:32.730Z,6832.00
2018-05-23T09:08:32.740Z,6716.00
2018-05-23T09:09:32.718Z,6656.00
2018-05-23T09:10:32.720Z,6624.00
2018-05-23T09:11:32.752Z,6592.00
2018-05-23T09:12:32.759Z,6572.00
2018-05-23T09:13:32.702Z,6628.00
2018-05-23T09:14:32.675Z,6720.00
2018-05-23T09:15:32.700Z,6896.00
2018-05-23T09:16:32.630Z,7032.00
2018-05-23T09:17:32.626Z,7116.00
2018-05-23T09:18:32.626Z,7144.00
2018-05-23T09:19:32.631Z,7172.00
2018-05-23T09:20:32.615Z,7148.00
2018-05-23T09:21:32.587Z,7120.00
2018-05-23T09:22:32.577Z,7164.00
2018-05-23T09:23:32.593Z,7320.00
2018-05-23T09:24:32.546Z,7552.00
2018-05-23T09:25:32.638Z,7844.00
2018-05-23T09:26:32.545Z,8068.00
2018-05-23T09:27:32.545Z,8132.00
2018-05-23T09:28:32.550Z,8100.00
2018-05-23T09:29:32.501Z,8100.00
2018-05-23T09:30:32.543Z,8212.00
2018-05-23T09:31:32.480Z,8428.00
2018-05-23T09:32:32.477Z,8624.00
2018-05-23T09:33:32.448Z,8820.00
2018-05-23T09:34:32.467Z,9004.00
2018-05-23T09:35:32.437Z,9128.00
2018-05-23T09:36:32.449Z,9212.00
2018-05-23T09:37:32.419Z,9280.00
2018-05-23T09:38:32.438Z,9380.00
2018-05-23T09:39:32.421Z,9528.00
2018-05-23T09:40:32.376Z,9620.00
2018-05-23T09:41:32.362Z,9664.00
2018-05-23T09:42:32.366Z,9740.00
2018-05-23T09:43:32.370Z,9864.00
2018-05-23T09:44:32.398Z,10040.00
2018-05-23T09:45:32.377Z,10160.00
2018-05-23T09:46:32.340Z,10140.00
2018-05-23T09:47:32.316Z,10076.00
2018-05-23T09:48:32.319Z,9948.00
2018-05-23T09:49:32.303Z,9764.00
2018-05-23T09:50:32.339Z,9672.00
2018-05-23T09:51:32.261Z,9744.00
2018-05-23T09:52:32.256Z,9812.00
2018-05-23T09:53:32.252Z,9908.00
2018-05-23T09:54:32.234Z,10008.00
2018-05-23T09:55:32.234Z,10120.00
2018-05-23T09:56:32.213Z,10276.00
2018-05-23T09:57:32.227Z,10416.00
2018-05-23T09:58:32.235Z,10428.00
2018-05-23T09:59:32.205Z,10376.00
2018-05-23T10:00:32.176Z,10360.00
2018-05-23T10:01:32.273Z,10424.00
2018-05-23T10:02:32.221Z,10652.00
2018-05-23T10:03:32.139Z,10920.00
2018-05-23T10:04:32.133Z,10928.00
2018-05-23T10:05:32.174Z,10708.00
2018-05-23T10:06:32.131Z,10100.00
2018-05-23T10:07:32.130Z,9432.00
2018-05-23T10:08:32.138Z,8784.00
2018-05-23T10:09:32.091Z,8472.00
2018-05-23T10:10:32.101Z,8364.00
2018-05-23T10:11:32.088Z,8204.00
2018-05-23T10:12:32.065Z,7948.00
2018-05-23T10:13:32.076Z,7668.00
2018-05-23T10:14:32.063Z,7376.00
2018-05-23T10:15:32.074Z,7128.00
2018-05-23T10:16:32.038Z,6816.00
2018-05-23T10:17:32.079Z,6600.00
2018-05-23T10:18:32.016Z,6460.00
2018-05-23T10:19:32.014Z,6344.00
2018-05-23T10:20:31.985Z,6284.00
2018-05-23T10:21:31.981Z,6316.00
2018-05-23T10:22:32.059Z,6392.00
2018-05-23T10:23:31.982Z,6620.00
2018-05-23T10:24:31.967Z,6972.00
2018-05-23T10:25:31.941Z,7432.00
2018-05-23T10:26:31.933Z,7932.00
2018-05-23T10:27:31.956Z,8472.00
2018-05-23T10:28:31.979Z,9176.00
2018-05-23T10:29:31.919Z,10040.00
2018-05-23T10:30:31.903Z,10720.00
2018-05-23T10:31:31.899Z,11136.00
2018-05-23T10:32:31.906Z,11344.00
2018-05-23T10:33:31.866Z,11428.00
2018-05-23T10:34:31.850Z,11452.00
2018-05-23T10:35:31.847Z,11296.00
2018-05-23T10:36:31.831Z,11088.00
2018-05-23T10:37:31.827Z,10864.00
2018-05-23T10:38:31.843Z,10800.00
2018-05-23T10:39:31.818Z,10764.00
2018-05-23T10:40:31.790Z,10656.00
2018-05-23T10:41:31.821Z,10508.00
2018-05-23T10:42:31.781Z,10528.00
2018-05-23T10:43:31.813Z,10592.00
2018-05-23T10:44:31.779Z,10652.00
2018-05-23T10:45:31.745Z,10660.00
2018-05-23T10:46:31.741Z,10540.00
2018-05-23T10:47:31.734Z,10444.00
2018-05-23T10:48:31.731Z,10476.00
2018-05-23T10:49:31.777Z,10496.00
2018-05-23T10:50:31.716Z,10596.00
2018-05-23T10:51:31.709Z,10540.00
2018-05-23T10:52:31.715Z,10644.00
2018-05-23T10:53:31.695Z,10860.00
2018-05-23T10:54:31.674Z,11104.00
2018-05-23T10:55:31.660Z,11360.00
2018-05-23T10:56:31.680Z,11368.00
2018-05-23T10:57:31.691Z,11152.00
2018-05-23T10:58:31.661Z,11048.00
2018-05-23T10:59:31.666Z,11044.00
2018-05-23T11:00:31.642Z,11060.00
2018-05-23T11:01:31.602Z,11012.00
2018-05-23T11:02:31.596Z,10892.00
2018-05-23T11:03:31.595Z,10764.00
2018-05-23T11:04:31.582Z,10708.00
2018-05-23T11:05:31.646Z,10736.00
2018-05-23T11:06:31.572Z,10688.00
2018-05-23T11:07:31.553Z,10600.00
2018-05-23T11:08:31.543Z,10400.00
2018-05-23T11:09:31.540Z,10228.00
2018-05-23T11:10:31.548Z,9936.00
2018-05-23T11:11:31.551Z,9612.00
2018-05-23T11:12:31.535Z,9184.00
2018-05-23T11:13:31.544Z,8728.00
2018-05-23T11:14:31.521Z,8292.00
2018-05-23T11:15:31.522Z,7900.00
2018-05-23T11:16:31.521Z,7532.00
2018-05-23T11:17:31.476Z,7168.00
2018-05-23T11:18:31.451Z,6868.00
2018-05-23T11:19:31.489Z,6580.00
2018-05-23T11:20:31.472Z,6376.00
2018-05-23T11:21:31.472Z,6224.00
2018-05-23T11:22:31.444Z,6140.00
2018-05-23T11:23:31.433Z,6172.00
2018-05-23T11:24:31.430Z,6304.00
2018-05-23T11:25:31.409Z,6508.00
2018-05-23T11:26:31.401Z,6732.00
2018-05-23T11:27:31.377Z,6908.00
2018-05-23T11:28:31.390Z,7084.00
2018-05-23T11:29:31.355Z,7252.00
2018-05-23T11:30:31.354Z,7384.00
2018-05-23T11:31:31.347Z,7484.00
2018-05-23T11:32:31.353Z,7552.00
2018-05-23T11:33:31.328Z,7536.00
2018-05-23T11:34:31.305Z,7516.00
2018-05-23T11:35:31.311Z,7440.00
2018-05-23T11:36:31.298Z,7280.00
2018-05-23T11:37:31.299Z,7092.00
2018-05-23T11:38:31.268Z,6824.00
2018-05-23T11:39:31.263Z,6552.00
2018-05-23T11:40:31.294Z,6296.00
2018-05-23T11:41:31.238Z,6100.00
2018-05-23T11:42:31.267Z,5956.00
2018-05-23T11:43:31.230Z,5884.00
2018-05-23T11:44:31.227Z,5836.00
2018-05-23T11:45:31.226Z,5816.00
2018-05-23T11:46:31.243Z,5820.00
2018-05-23T11:47:31.212Z,5856.00
2018-05-23T11:48:31.175Z,5924.00
2018-05-23T11:49:31.209Z,5988.00
2018-05-23T11:50:31.166Z,6016.00
2018-05-23T11:51:31.162Z,6044.00
2018-05-23T11:52:31.153Z,6096.00
2018-05-23T11:53:31.156Z,6200.00
2018-05-23T11:54:31.166Z,6340.00
2018-05-23T11:55:31.105Z,6464.00
2018-05-23T11:56:31.106Z,6496.00
2018-05-23T11:57:31.096Z,6464.00
2018-05-23T11:58:31.100Z,6424.00
2018-05-23T11:59:31.090Z,6432.00
2018-05-23T12:00:31.075Z,6448.00
2018-05-23T12:01:31.032Z,6452.00
2018-05-23T12:02:31.019Z,6492.00
2018-05-23T12:03:31.012Z,6568.00
2018-05-23T12:04:31.011Z,6688.00
2018-05-23T12:05:30.985Z,6832.00
2018-05-23T12:06:30.983Z,6932.00
2018-05-23T12:07:30.978Z,7036.00
2018-05-23T12:08:30.985Z,7212.00
2018-05-23T12:09:30.956Z,7468.00
2018-05-23T12:10:31.086Z,7784.00
2018-05-23T12:11:30.937Z,8028.00
2018-05-23T12:12:30.941Z,8200.00
2018-05-23T12:13:30.901Z,8260.00
2018-05-23T12:14:30.910Z,8304.00
2018-05-23T12:15:30.885Z,8388.00
2018-05-23T12:16:30.880Z,8492.00
2018-05-23T12:17:30.923Z,8564.00
2018-05-23T12:18:30.872Z,8556.00
2018-05-23T12:19:30.936Z,8508.00
2018-05-23T12:20:30.840Z,8480.00
2018-05-23T12:21:30.859Z,8484.00
2018-05-23T12:22:30.819Z,8500.00
2018-05-23T12:23:30.811Z,8564.00
2018-05-23T12:24:30.820Z,8600.00
2018-05-23T12:25:30.822Z,8576.00
2018-05-23T12:26:30.811Z,8460.00